Terminal Aerodrome Forecast
Issued by NWS Salt Lake City, UT

Home | Current Version | Previous Version | Text Only | Print | Product List | Glossary On
Versions: 1 2 3 4 5 6 7 8 9 10 11 12 13 14 15 16 17 18 19 20 21 22 23 24 25 26 27 28 29
000
FTUS45 KSLC 191120
TAFSLC
TAF
KSLC 191120Z 1912/2018 17004KT P6SM FEW070 BKN120
     FM191800 31007KT P6SM VCSH SCT070 BKN110
     FM200300 18006KT P6SM SCT060 SCT120=

USA.gov is the U.S. government's official web portal to all federal, state and local government web resources and services.